Date,TemperatureHighF,TemperatureAvgF,TemperatureLowF,DewpointHighF,DewpointAvgF,DewpointLowF,HumidityHigh,HumidityAvg,HumidityLow,PressureMaxIn,PressureMinIn,WindSpeedMaxMPH,WindSpeedAvgMPH,GustSpeedMaxMPH,PrecipitationSumIn
2013-2-1,41.5,24.6,16.0,25.7,-1.2,-15.8,77,35,19,30.29,29.86,13,4,22,0.00
2013-2-2,30.4,24.2,17.1,24.9,12.5,-3.3,80,61,36,30.26,29.97,1,0,7,0.00
2013-2-3,39.9,33.7,29.3,34.6,23.8,14.6,91,68,51,30.07,29.89,10,3,19,0.08
2013-2-4,50.2,33.7,22.3,28.5,18.2,11.3,72,54,35,30.05,29.88,0,0,2,0.00
2013-2-5,56.3,44.2,35.4,39.0,29.9,21.3,67,57,42,29.93,29.87,4,0,9,0.00
2013-2-6,61.0,46.0,36.0,36.7,25.0,5.4,81,50,19,30.13,29.93,2,0,7,0.00
2013-2-7,58.8,45.9,37.6,37.3,28.6,19.4,73,52,33,30.09,29.88,9,1,18,0.00
2013-2-8,53.4,43.4,35.2,47.5,34.1,22.2,96,71,42,30.18,29.83,8,2,14,0.15
2013-2-9,61.7,39.7,26.2,28.3,16.0,-1.6,71,44,19,30.27,30.15,1,0,6,0.00
2013-2-10,63.0,47.7,36.5,41.9,20.6,5.4,74,38,19,30.17,29.92,12,6,24,0.13
2013-2-11,56.7,52.4,45.1,51.4,42.3,29.5,92,70,46,30.05,29.90,9,2,17,0.03
2013-2-12,57.0,45.3,36.5,32.2,23.3,12.9,65,44,19,30.11,29.83,1,0,6,0.03
2013-2-13,47.3,41.7,36.3,43.7,35.8,29.8,89,80,65,29.90,29.60,10,1,14,0.23
2013-2-14,55.8,43.1,33.4,31.2,25.6,19.5,76,52,25,30.00,29.90,2,0,10,0.00
2013-2-15,57.9,40.1,32.4,35.0,28.3,21.5,83,64,33,30.03,29.91,10,1,15,0.03
2013-2-16,35.8,30.2,21.6,30.2,16.2,-7.9,84,60,19,29.99,29.88,8,1,14,0.00
2013-2-17,38.3,27.6,19.6,6.5,-5.2,-14.1,51,25,19,30.17,29.99,9,3,17,0.00
2013-2-18,63.0,39.7,19.9,20.7,4.3,-15.5,47,24,19,30.22,29.91,12,2,23,0.00
2013-2-19,52.5,42.5,32.9,41.5,18.9,-4.9,92,47,19,30.05,29.84,11,4,21,0.15
2013-2-20,42.6,32.6,24.4,9.0,-0.1,-10.7,45,26,19,30.13,30.06,5,1,12,0.00
2013-2-21,59.9,38.2,19.9,32.7,8.1,-12.9,71,31,19,30.17,29.94,6,0,12,0.28
2013-2-22,60.6,48.4,40.1,38.9,35.7,30.4,81,63,41,30.05,29.92,12,5,23,0.13
2013-2-23,56.7,48.5,43.2,48.8,42.1,38.2,91,79,65,29.96,29.78,1,0,5,0.08
2013-2-24,56.3,43.9,34.0,43.7,21.6,-1.5,92,49,19,30.00,29.83,4,1,9,0.00
2013-2-25,65.3,44.2,29.7,31.1,19.7,9.6,54,40,19,29.99,29.82,12,2,23,0.00
2013-2-26,64.6,47.5,38.8,47.1,34.8,24.8,87,63,41,29.82,29.39,12,4,22,0.25
2013-2-27,50.9,41.1,37.6,32.4,29.6,26.7,79,64,42,29.77,29.60,7,2,14,0.00
2013-2-28,39.6,35.5,33.3,29.4,22.9,17.6,76,60,45,29.90,29.72,7,3,14,0.00